sensor_id;sensor_type;location;lat;lon;timestamp;temperature;humidity
75786;DHT22;64402;44.708;37.644;2023-05-07T00:00:47;17.85;72.36
75786;DHT22;64402;44.708;37.644;2023-05-07T00:03:14;17.88;72.33
75786;DHT22;64402;44.708;37.644;2023-05-07T00:05:40;17.87;72.44
75786;DHT22;64402;44.708;37.644;2023-05-07T00:08:07;17.81;72.44
75786;DHT22;64402;44.708;37.644;2023-05-07T00:10:33;17.82;72.47
75786;DHT22;64402;44.708;37.644;2023-05-07T00:12:59;17.83;72.31
75786;DHT22;64402;44.708;37.644;2023-05-07T00:15:26;17.83;72.63
75786;DHT22;64402;44.708;37.644;2023-05-07T00:17:53;17.80;72.73
75786;DHT22;64402;44.708;37.644;2023-05-07T00:20:19;17.81;72.47
75786;DHT22;64402;44.708;37.644;2023-05-07T00:22:45;17.77;72.81
75786;DHT22;64402;44.708;37.644;2023-05-07T00:25:11;17.74;72.52
75786;DHT22;64402;44.708;37.644;2023-05-07T00:27:37;17.70;72.58
75786;DHT22;64402;44.708;37.644;2023-05-07T00:30:04;17.69;72.51
75786;DHT22;64402;44.708;37.644;2023-05-07T00:32:30;17.70;72.68
75786;DHT22;64402;44.708;37.644;2023-05-07T00:34:56;17.66;72.80
75786;DHT22;64402;44.708;37.644;2023-05-07T00:37:23;17.66;72.77
75786;DHT22;64402;44.708;37.644;2023-05-07T00:39:49;17.63;72.66
75786;DHT22;64402;44.708;37.644;2023-05-07T00:42:15;17.63;72.48
75786;DHT22;64402;44.708;37.644;2023-05-07T00:44:42;17.61;72.88
75786;DHT22;64402;44.708;37.644;2023-05-07T00:47:08;17.55;72.59
75786;DHT22;64402;44.708;37.644;2023-05-07T00:49:38;17.59;72.70
75786;DHT22;64402;44.708;37.644;2023-05-07T00:52:06;17.63;72.60
75786;DHT22;64402;44.708;37.644;2023-05-07T00:54:34;17.65;72.27
75786;DHT22;64402;44.708;37.644;2023-05-07T00:57:02;17.67;72.13
75786;DHT22;64402;44.708;37.644;2023-05-07T00:59:31;17.63;72.54
75786;DHT22;64402;44.708;37.644;2023-05-07T01:01:57;17.60;72.74
75786;DHT22;64402;44.708;37.644;2023-05-07T01:04:24;17.54;73.41
75786;DHT22;64402;44.708;37.644;2023-05-07T01:06:51;17.53;73.28
75786;DHT22;64402;44.708;37.644;2023-05-07T01:09:19;17.48;73.96
75786;DHT22;64402;44.708;37.644;2023-05-07T01:11:46;17.46;74.34
75786;DHT22;64402;44.708;37.644;2023-05-07T01:14:12;17.43;73.75
75786;DHT22;64402;44.708;37.644;2023-05-07T01:16:39;17.40;73.72
75786;DHT22;64402;44.708;37.644;2023-05-07T01:19:07;17.39;74.38
75786;DHT22;64402;44.708;37.644;2023-05-07T01:21:36;17.35;74.99
75786;DHT22;64402;44.708;37.644;2023-05-07T01:24:04;17.32;75.58
75786;DHT22;64402;44.708;37.644;2023-05-07T01:26:30;17.22;76.21
75786;DHT22;64402;44.708;37.644;2023-05-07T01:28:56;17.17;77.86
75786;DHT22;64402;44.708;37.644;2023-05-07T01:31:24;17.09;78.09
75786;DHT22;64402;44.708;37.644;2023-05-07T01:33:51;17.03;78.40
75786;DHT22;64402;44.708;37.644;2023-05-07T01:36:20;16.96;79.40
75786;DHT22;64402;44.708;37.644;2023-05-07T01:38:47;16.80;80.49
75786;DHT22;64402;44.708;37.644;2023-05-07T01:41:13;16.63;80.46
75786;DHT22;64402;44.708;37.644;2023-05-07T01:43:41;16.55;80.91
75786;DHT22;64402;44.708;37.644;2023-05-07T01:46:09;16.45;80.56
75786;DHT22;64402;44.708;37.644;2023-05-07T01:48:36;16.39;80.33
75786;DHT22;64402;44.708;37.644;2023-05-07T01:51:04;16.37;80.69
75786;DHT22;64402;44.708;37.644;2023-05-07T01:53:39;16.27;81.02
75786;DHT22;64402;44.708;37.644;2023-05-07T01:56:07;16.26;81.28
75786;DHT22;64402;44.708;37.644;2023-05-07T01:58:33;16.22;81.20
75786;DHT22;64402;44.708;37.644;2023-05-07T02:00:59;16.20;80.54
75786;DHT22;64402;44.708;37.644;2023-05-07T02:03:25;16.14;81.05
75786;DHT22;64402;44.708;37.644;2023-05-07T02:05:51;16.10;80.72
75786;DHT22;64402;44.708;37.644;2023-05-07T02:08:18;16.06;81.30
75786;DHT22;64402;44.708;37.644;2023-05-07T02:10:44;16.01;81.49
75786;DHT22;64402;44.708;37.644;2023-05-07T02:13:10;15.98;81.16
75786;DHT22;64402;44.708;37.644;2023-05-07T02:15:36;15.90;80.93
75786;DHT22;64402;44.708;37.644;2023-05-07T02:18:04;15.87;81.56
75786;DHT22;64402;44.708;37.644;2023-05-07T02:20:32;15.76;81.37
75786;DHT22;64402;44.708;37.644;2023-05-07T02:22:58;15.70;81.48
75786;DHT22;64402;44.708;37.644;2023-05-07T02:25:25;15.68;82.21
75786;DHT22;64402;44.708;37.644;2023-05-07T02:27:51;15.59;81.75
75786;DHT22;64402;44.708;37.644;2023-05-07T02:30:17;15.53;82.23
75786;DHT22;64402;44.708;37.644;2023-05-07T02:32:43;15.47;82.70
75786;DHT22;64402;44.708;37.644;2023-05-07T02:35:10;15.46;82.17
75786;DHT22;64402;44.708;37.644;2023-05-07T02:37:36;15.48;82.59
75786;DHT22;64402;44.708;37.644;2023-05-07T02:40:03;15.49;82.27
75786;DHT22;64402;44.708;37.644;2023-05-07T02:42:30;15.52;82.47
75786;DHT22;64402;44.708;37.644;2023-05-07T02:44:56;15.51;81.98
75786;DHT22;64402;44.708;37.644;2023-05-07T02:47:23;15.47;81.69
75786;DHT22;64402;44.708;37.644;2023-05-07T02:49:49;15.41;81.55
75786;DHT22;64402;44.708;37.644;2023-05-07T02:52:15;15.42;81.85
75786;DHT22;64402;44.708;37.644;2023-05-07T02:54:41;15.44;81.72
75786;DHT22;64402;44.708;37.644;2023-05-07T02:57:07;15.40;81.58
75786;DHT22;64402;44.708;37.644;2023-05-07T02:59:34;15.36;81.48
75786;DHT22;64402;44.708;37.644;2023-05-07T03:02:00;15.33;81.71
75786;DHT22;64402;44.708;37.644;2023-05-07T03:04:26;15.33;81.74
75786;DHT22;64402;44.708;37.644;2023-05-07T03:06:52;15.36;81.55
75786;DHT22;64402;44.708;37.644;2023-05-07T03:09:18;15.36;81.33
75786;DHT22;64402;44.708;37.644;2023-05-07T03:11:45;15.36;81.39
75786;DHT22;64402;44.708;37.644;2023-05-07T03:14:11;15.36;81.56
75786;DHT22;64402;44.708;37.644;2023-05-07T03:16:38;15.33;81.39
75786;DHT22;64402;44.708;37.644;2023-05-07T03:19:04;15.34;81.04
75786;DHT22;64402;44.708;37.644;2023-05-07T03:21:30;15.36;81.11
75786;DHT22;64402;44.708;37.644;2023-05-07T03:23:59;15.34;80.75
75786;DHT22;64402;44.708;37.644;2023-05-07T03:26:26;15.36;80.73
75786;DHT22;64402;44.708;37.644;2023-05-07T03:28:52;15.38;80.52
75786;DHT22;64402;44.708;37.644;2023-05-07T03:31:18;15.40;80.03
75786;DHT22;64402;44.708;37.644;2023-05-07T03:33:55;15.40;80.52
75786;DHT22;64402;44.708;37.644;2023-05-07T03:36:22;15.44;80.00
75786;DHT22;64402;44.708;37.644;2023-05-07T03:38:49;15.51;79.62
75786;DHT22;64402;44.708;37.644;2023-05-07T03:41:15;15.60;79.21
75786;DHT22;64402;44.708;37.644;2023-05-07T03:43:41;15.67;79.48
75786;DHT22;64402;44.708;37.644;2023-05-07T03:46:08;15.73;78.58
75786;DHT22;64402;44.708;37.644;2023-05-07T03:48:34;15.83;78.70
75786;DHT22;64402;44.708;37.644;2023-05-07T03:51:00;15.85;78.30
75786;DHT22;64402;44.708;37.644;2023-05-07T03:53:26;15.87;78.94
75786;DHT22;64402;44.708;37.644;2023-05-07T03:55:53;15.91;79.00
75786;DHT22;64402;44.708;37.644;2023-05-07T03:58:19;15.96;78.50
75786;DHT22;64402;44.708;37.644;2023-05-07T04:00:45;15.97;78.16
75786;DHT22;64402;44.708;37.644;2023-05-07T04:03:11;16.03;77.79
75786;DHT22;64402;44.708;37.644;2023-05-07T04:05:37;16.04;76.88
75786;DHT22;64402;44.708;37.644;2023-05-07T04:08:04;16.13;76.99
75786;DHT22;64402;44.708;37.644;2023-05-07T04:10:31;16.14;76.94
75786;DHT22;64402;44.708;37.644;2023-05-07T04:12:57;16.11;76.72
75786;DHT22;64402;44.708;37.644;2023-05-07T04:15:23;16.03;76.63
75786;DHT22;64402;44.708;37.644;2023-05-07T04:17:49;15.98;76.69
75786;DHT22;64402;44.708;37.644;2023-05-07T04:20:16;15.87;77.41
75786;DHT22;64402;44.708;37.644;2023-05-07T04:22:43;15.72;78.95
75786;DHT22;64402;44.708;37.644;2023-05-07T04:25:09;15.59;79.15
75786;DHT22;64402;44.708;37.644;2023-05-07T04:27:36;15.51;79.78
75786;DHT22;64402;44.708;37.644;2023-05-07T04:30:03;15.45;79.83
75786;DHT22;64402;44.708;37.644;2023-05-07T04:32:29;15.45;79.43
75786;DHT22;64402;44.708;37.644;2023-05-07T04:34:56;15.45;79.74
75786;DHT22;64402;44.708;37.644;2023-05-07T04:37:22;15.45;79.51
75786;DHT22;64402;44.708;37.644;2023-05-07T04:39:48;15.46;80.11
75786;DHT22;64402;44.708;37.644;2023-05-07T04:42:18;15.47;80.11
75786;DHT22;64402;44.708;37.644;2023-05-07T04:44:44;15.49;80.44
75786;DHT22;64402;44.708;37.644;2023-05-07T04:47:11;15.55;80.29
75786;DHT22;64402;44.708;37.644;2023-05-07T04:49:38;15.56;80.17
75786;DHT22;64402;44.708;37.644;2023-05-07T04:52:04;15.53;80.08
75786;DHT22;64402;44.708;37.644;2023-05-07T04:54:30;15.57;79.42
75786;DHT22;64402;44.708;37.644;2023-05-07T04:56:57;15.67;79.52
75786;DHT22;64402;44.708;37.644;2023-05-07T04:59:23;15.72;79.49
75786;DHT22;64402;44.708;37.644;2023-05-07T05:01:49;15.75;79.32
75786;DHT22;64402;44.708;37.644;2023-05-07T05:04:15;15.78;78.55
75786;DHT22;64402;44.708;37.644;2023-05-07T05:06:42;15.74;77.47
75786;DHT22;64402;44.708;37.644;2023-05-07T05:09:08;15.71;78.66
75786;DHT22;64402;44.708;37.644;2023-05-07T05:11:34;15.85;77.60
75786;DHT22;64402;44.708;37.644;2023-05-07T05:14:00;16.15;77.09
75786;DHT22;64402;44.708;37.644;2023-05-07T05:16:27;16.41;76.28
75786;DHT22;64402;44.708;37.644;2023-05-07T05:18:53;16.59;75.86
75786;DHT22;64402;44.708;37.644;2023-05-07T05:21:20;16.73;75.18
75786;DHT22;64402;44.708;37.644;2023-05-07T05:23:47;16.74;74.13
75786;DHT22;64402;44.708;37.644;2023-05-07T05:26:13;16.78;74.55
75786;DHT22;64402;44.708;37.644;2023-05-07T05:28:39;16.77;75.60
75786;DHT22;64402;44.708;37.644;2023-05-07T05:31:05;16.71;74.48
75786;DHT22;64402;44.708;37.644;2023-05-07T05:33:32;16.62;73.94
75786;DHT22;64402;44.708;37.644;2023-05-07T05:35:58;16.63;75.70
75786;DHT22;64402;44.708;37.644;2023-05-07T05:38:25;16.46;75.15
75786;DHT22;64402;44.708;37.644;2023-05-07T05:40:51;16.24;74.30
75786;DHT22;64402;44.708;37.644;2023-05-07T05:43:17;16.11;75.71
75786;DHT22;64402;44.708;37.644;2023-05-07T05:45:44;16.05;75.92
75786;DHT22;64402;44.708;37.644;2023-05-07T05:48:10;16.11;76.01
75786;DHT22;64402;44.708;37.644;2023-05-07T05:50:36;16.21;75.95
75786;DHT22;64402;44.708;37.644;2023-05-07T05:53:02;16.30;75.41
75786;DHT22;64402;44.708;37.644;2023-05-07T05:55:29;16.52;74.57
75786;DHT22;64402;44.708;37.644;2023-05-07T05:57:56;16.87;73.94
75786;DHT22;64402;44.708;37.644;2023-05-07T06:00:22;17.14;72.63
75786;DHT22;64402;44.708;37.644;2023-05-07T06:02:48;17.45;72.77
75786;DHT22;64402;44.708;37.644;2023-05-07T06:05:14;17.61;70.98
75786;DHT22;64402;44.708;37.644;2023-05-07T06:07:41;17.98;69.45
75786;DHT22;64402;44.708;37.644;2023-05-07T06:10:07;18.28;68.99
75786;DHT22;64402;44.708;37.644;2023-05-07T06:12:33;18.57;67.88
75786;DHT22;64402;44.708;37.644;2023-05-07T06:14:59;18.68;67.10
75786;DHT22;64402;44.708;37.644;2023-05-07T06:17:25;18.55;67.20
75786;DHT22;64402;44.708;37.644;2023-05-07T06:19:52;18.46;66.98
75786;DHT22;64402;44.708;37.644;2023-05-07T06:22:18;18.38;67.09
75786;DHT22;64402;44.708;37.644;2023-05-07T06:24:45;18.30;67.49
75786;DHT22;64402;44.708;37.644;2023-05-07T06:27:11;18.36;67.60
75786;DHT22;64402;44.708;37.644;2023-05-07T06:29:38;18.46;67.17
75786;DHT22;64402;44.708;37.644;2023-05-07T06:32:11;18.61;67.34
75786;DHT22;64402;44.708;37.644;2023-05-07T06:34:39;18.73;66.52
75786;DHT22;64402;44.708;37.644;2023-05-07T06:37:06;18.83;65.98
75786;DHT22;64402;44.708;37.644;2023-05-07T06:39:32;18.89;65.59
75786;DHT22;64402;44.708;37.644;2023-05-07T06:42:00;18.64;65.60
75786;DHT22;64402;44.708;37.644;2023-05-07T06:44:26;18.58;66.07
75786;DHT22;64402;44.708;37.644;2023-05-07T06:46:52;18.66;66.63
75786;DHT22;64402;44.708;37.644;2023-05-07T06:49:18;18.73;65.75
75786;DHT22;64402;44.708;37.644;2023-05-07T06:51:44;18.65;65.23
75786;DHT22;64402;44.708;37.644;2023-05-07T06:54:10;18.74;66.35
75786;DHT22;64402;44.708;37.644;2023-05-07T06:56:37;18.83;64.77
75786;DHT22;64402;44.708;37.644;2023-05-07T06:59:03;18.93;65.21
75786;DHT22;64402;44.708;37.644;2023-05-07T07:01:29;18.98;65.11
75786;DHT22;64402;44.708;37.644;2023-05-07T07:03:55;19.14;65.13
75786;DHT22;64402;44.708;37.644;2023-05-07T07:06:22;19.16;64.18
75786;DHT22;64402;44.708;37.644;2023-05-07T07:08:48;19.09;64.40
75786;DHT22;64402;44.708;37.644;2023-05-07T07:11:15;19.05;64.50
75786;DHT22;64402;44.708;37.644;2023-05-07T07:13:41;19.00;64.51
75786;DHT22;64402;44.708;37.644;2023-05-07T07:16:08;19.18;64.47
75786;DHT22;64402;44.708;37.644;2023-05-07T07:18:34;19.17;64.23
75786;DHT22;64402;44.708;37.644;2023-05-07T07:21:01;19.15;64.01
75786;DHT22;64402;44.708;37.644;2023-05-07T07:23:27;19.02;63.70
75786;DHT22;64402;44.708;37.644;2023-05-07T07:25:54;19.02;63.93
75786;DHT22;64402;44.708;37.644;2023-05-07T07:28:21;18.97;63.81
75786;DHT22;64402;44.708;37.644;2023-05-07T07:30:48;18.88;63.66
75786;DHT22;64402;44.708;37.644;2023-05-07T07:33:14;19.13;63.85
75786;DHT22;64402;44.708;37.644;2023-05-07T07:35:40;19.06;63.79
75786;DHT22;64402;44.708;37.644;2023-05-07T07:38:06;19.00;63.89
75786;DHT22;64402;44.708;37.644;2023-05-07T07:40:34;18.84;63.39
75786;DHT22;64402;44.708;37.644;2023-05-07T07:43:01;18.81;64.40
75786;DHT22;64402;44.708;37.644;2023-05-07T07:45:27;18.85;63.55
75786;DHT22;64402;44.708;37.644;2023-05-07T07:47:54;18.83;64.15
75786;DHT22;64402;44.708;37.644;2023-05-07T07:50:20;19.03;63.52
75786;DHT22;64402;44.708;37.644;2023-05-07T07:52:46;19.11;63.26
75786;DHT22;64402;44.708;37.644;2023-05-07T07:55:12;19.22;63.28
75786;DHT22;64402;44.708;37.644;2023-05-07T07:57:39;19.40;62.41
75786;DHT22;64402;44.708;37.644;2023-05-07T08:00:06;19.57;62.30
75786;DHT22;64402;44.708;37.644;2023-05-07T08:02:33;19.53;62.66
75786;DHT22;64402;44.708;37.644;2023-05-07T08:04:59;19.33;61.79
75786;DHT22;64402;44.708;37.644;2023-05-07T08:07:25;19.22;62.21
75786;DHT22;64402;44.708;37.644;2023-05-07T08:09:51;19.13;61.98
75786;DHT22;64402;44.708;37.644;2023-05-07T08:12:18;19.07;63.15
75786;DHT22;64402;44.708;37.644;2023-05-07T08:14:44;19.15;62.60
75786;DHT22;64402;44.708;37.644;2023-05-07T08:17:10;18.93;62.55
75786;DHT22;64402;44.708;37.644;2023-05-07T08:19:36;18.96;63.35
75786;DHT22;64402;44.708;37.644;2023-05-07T08:22:03;19.05;63.56
75786;DHT22;64402;44.708;37.644;2023-05-07T08:24:31;19.10;63.02
75786;DHT22;64402;44.708;37.644;2023-05-07T08:26:57;19.15;62.98
75786;DHT22;64402;44.708;37.644;2023-05-07T08:29:23;18.99;63.26
75786;DHT22;64402;44.708;37.644;2023-05-07T08:31:49;18.91;63.29
75786;DHT22;64402;44.708;37.644;2023-05-07T08:34:15;19.00;63.50
75786;DHT22;64402;44.708;37.644;2023-05-07T08:36:42;19.00;63.50
75786;DHT22;64402;44.708;37.644;2023-05-07T08:39:08;18.99;63.50
75786;DHT22;64402;44.708;37.644;2023-05-07T08:41:34;19.13;63.49
75786;DHT22;64402;44.708;37.644;2023-05-07T08:44:03;19.23;62.07
75786;DHT22;64402;44.708;37.644;2023-05-07T08:46:31;19.20;62.62
75786;DHT22;64402;44.708;37.644;2023-05-07T08:48:58;19.18;62.21
75786;DHT22;64402;44.708;37.644;2023-05-07T08:51:24;19.39;61.99
75786;DHT22;64402;44.708;37.644;2023-05-07T08:53:50;19.59;62.37
75786;DHT22;64402;44.708;37.644;2023-05-07T08:56:17;19.44;61.44
75786;DHT22;64402;44.708;37.644;2023-05-07T08:58:44;19.39;62.64
75786;DHT22;64402;44.708;37.644;2023-05-07T09:01:14;19.44;61.85
75786;DHT22;64402;44.708;37.644;2023-05-07T09:03:41;19.39;61.73
75786;DHT22;64402;44.708;37.644;2023-05-07T09:06:10;19.38;62.60
75786;DHT22;64402;44.708;37.644;2023-05-07T09:08:36;19.41;62.02
75786;DHT22;64402;44.708;37.644;2023-05-07T09:11:03;19.53;62.41
75786;DHT22;64402;44.708;37.644;2023-05-07T09:13:29;19.75;62.03
75786;DHT22;64402;44.708;37.644;2023-05-07T09:15:56;19.84;60.98
75786;DHT22;64402;44.708;37.644;2023-05-07T09:18:25;19.92;61.00
75786;DHT22;64402;44.708;37.644;2023-05-07T09:20:51;20.18;60.59
75786;DHT22;64402;44.708;37.644;2023-05-07T09:23:18;20.54;59.57
75786;DHT22;64402;44.708;37.644;2023-05-07T09:25:44;20.88;58.86
75786;DHT22;64402;44.708;37.644;2023-05-07T09:28:10;21.10;57.40
75786;DHT22;64402;44.708;37.644;2023-05-07T09:30:36;21.49;57.55
75786;DHT22;64402;44.708;37.644;2023-05-07T09:33:03;21.69;56.24
75786;DHT22;64402;44.708;37.644;2023-05-07T09:35:30;21.75;55.71
75786;DHT22;64402;44.708;37.644;2023-05-07T09:37:58;21.77;56.16
75786;DHT22;64402;44.708;37.644;2023-05-07T09:40:26;21.75;56.07
75786;DHT22;64402;44.708;37.644;2023-05-07T09:42:53;21.81;55.16
75786;DHT22;64402;44.708;37.644;2023-05-07T09:45:25;22.02;54.19
75786;DHT22;64402;44.708;37.644;2023-05-07T09:47:56;22.01;54.69
75786;DHT22;64402;44.708;37.644;2023-05-07T09:50:27;22.03;54.39
75786;DHT22;64402;44.708;37.644;2023-05-07T09:52:56;22.03;54.52
75786;DHT22;64402;44.708;37.644;2023-05-07T09:55:23;21.95;54.76
75786;DHT22;64402;44.708;37.644;2023-05-07T09:57:53;21.88;54.47
75786;DHT22;64402;44.708;37.644;2023-05-07T10:00:20;21.64;55.19
75786;DHT22;64402;44.708;37.644;2023-05-07T10:02:49;21.75;55.24
75786;DHT22;64402;44.708;37.644;2023-05-07T10:05:18;21.90;54.84
75786;DHT22;64402;44.708;37.644;2023-05-07T10:07:46;22.21;54.39
75786;DHT22;64402;44.708;37.644;2023-05-07T10:10:12;22.38;53.77
75786;DHT22;64402;44.708;37.644;2023-05-07T10:12:40;22.75;53.37
75786;DHT22;64402;44.708;37.644;2023-05-07T10:15:10;22.78;52.46
75786;DHT22;64402;44.708;37.644;2023-05-07T10:17:37;22.75;52.42
75786;DHT22;64402;44.708;37.644;2023-05-07T10:20:05;22.84;52.17
75786;DHT22;64402;44.708;37.644;2023-05-07T10:22:46;23.01;51.69
75786;DHT22;64402;44.708;37.644;2023-05-07T10:25:33;23.30;51.11
75786;DHT22;64402;44.708;37.644;2023-05-07T10:28:05;23.44;50.35
75786;DHT22;64402;44.708;37.644;2023-05-07T10:33:11;23.72;50.58
75786;DHT22;64402;44.708;37.644;2023-05-07T10:35:42;23.68;49.78
75786;DHT22;64402;44.708;37.644;2023-05-07T10:38:09;23.51;50.46
75786;DHT22;64402;44.708;37.644;2023-05-07T10:40:36;23.39;50.19
75786;DHT22;64402;44.708;37.644;2023-05-07T10:43:03;22.82;51.70
75786;DHT22;64402;44.708;37.644;2023-05-07T10:45:33;22.44;53.21
75786;DHT22;64402;44.708;37.644;2023-05-07T10:48:16;22.03;54.49
75786;DHT22;64402;44.708;37.644;2023-05-07T10:50:44;22.03;54.27
75786;DHT22;64402;44.708;37.644;2023-05-07T10:55:51;21.52;56.35
75786;DHT22;64402;44.708;37.644;2023-05-07T10:58:29;21.45;56.56
75786;DHT22;64402;44.708;37.644;2023-05-07T11:01:02;21.10;57.96
75786;DHT22;64402;44.708;37.644;2023-05-07T11:03:29;20.85;58.51
75786;DHT22;64402;44.708;37.644;2023-05-07T11:06:15;20.66;59.52
75786;DHT22;64402;44.708;37.644;2023-05-07T11:08:58;20.45;60.35
75786;DHT22;64402;44.708;37.644;2023-05-07T11:11:44;20.33;60.55
75786;DHT22;64402;44.708;37.644;2023-05-07T11:14:11;20.26;60.93
75786;DHT22;64402;44.708;37.644;2023-05-07T11:16:37;20.20;60.93
75786;DHT22;64402;44.708;37.644;2023-05-07T11:19:04;20.10;61.29
75786;DHT22;64402;44.708;37.644;2023-05-07T11:21:35;19.97;61.92
75786;DHT22;64402;44.708;37.644;2023-05-07T11:24:03;19.71;62.89
75786;DHT22;64402;44.708;37.644;2023-05-07T11:26:41;19.65;63.39
75786;DHT22;64402;44.708;37.644;2023-05-07T11:29:21;19.52;63.77
75786;DHT22;64402;44.708;37.644;2023-05-07T11:31:51;19.40;63.52
75786;DHT22;64402;44.708;37.644;2023-05-07T11:34:23;19.37;64.56
75786;DHT22;64402;44.708;37.644;2023-05-07T11:36:50;19.27;64.83
75786;DHT22;64402;44.708;37.644;2023-05-07T11:39:30;19.33;64.74
75786;DHT22;64402;44.708;37.644;2023-05-07T11:42:02;19.16;64.96
75786;DHT22;64402;44.708;37.644;2023-05-07T11:44:42;19.13;65.30
75786;DHT22;64402;44.708;37.644;2023-05-07T11:47:10;19.08;65.44
75786;DHT22;64402;44.708;37.644;2023-05-07T11:49:36;18.94;64.98
75786;DHT22;64402;44.708;37.644;2023-05-07T11:52:02;18.81;65.84
75786;DHT22;64402;44.708;37.644;2023-05-07T11:54:35;18.77;66.33
75786;DHT22;64402;44.708;37.644;2023-05-07T11:57:02;18.67;66.57
75786;DHT22;64402;44.708;37.644;2023-05-07T11:59:29;18.65;67.05
75786;DHT22;64402;44.708;37.644;2023-05-07T12:01:58;18.82;66.62
75786;DHT22;64402;44.708;37.644;2023-05-07T12:04:25;18.89;66.02
75786;DHT22;64402;44.708;37.644;2023-05-07T12:06:54;18.84;66.36
75786;DHT22;64402;44.708;37.644;2023-05-07T12:09:21;18.81;66.58
75786;DHT22;64402;44.708;37.644;2023-05-07T12:11:48;18.92;66.45
75786;DHT22;64402;44.708;37.644;2023-05-07T12:14:14;19.01;66.21
75786;DHT22;64402;44.708;37.644;2023-05-07T12:16:42;19.02;66.33
75786;DHT22;64402;44.708;37.644;2023-05-07T12:19:09;19.01;66.27
75786;DHT22;64402;44.708;37.644;2023-05-07T12:21:38;18.96;66.76
75786;DHT22;64402;44.708;37.644;2023-05-07T12:24:05;18.93;66.52
75786;DHT22;64402;44.708;37.644;2023-05-07T12:26:32;18.86;66.10
75786;DHT22;64402;44.708;37.644;2023-05-07T12:29:03;18.73;67.29
75786;DHT22;64402;44.708;37.644;2023-05-07T12:31:30;18.76;67.18
75786;DHT22;64402;44.708;37.644;2023-05-07T12:33:56;18.72;67.62
75786;DHT22;64402;44.708;37.644;2023-05-07T12:36:22;18.62;68.27
75786;DHT22;64402;44.708;37.644;2023-05-07T12:38:54;18.63;68.72
75786;DHT22;64402;44.708;37.644;2023-05-07T12:41:20;18.62;68.13
75786;DHT22;64402;44.708;37.644;2023-05-07T12:43:56;18.66;67.51
75786;DHT22;64402;44.708;37.644;2023-05-07T12:46:23;18.70;68.20
75786;DHT22;64402;44.708;37.644;2023-05-07T12:48:49;18.80;67.79
75786;DHT22;64402;44.708;37.644;2023-05-07T12:51:15;18.85;67.36
75786;DHT22;64402;44.708;37.644;2023-05-07T12:53:42;18.93;67.23
75786;DHT22;64402;44.708;37.644;2023-05-07T12:56:09;19.00;67.10
75786;DHT22;64402;44.708;37.644;2023-05-07T12:58:35;19.01;66.69
75786;DHT22;64402;44.708;37.644;2023-05-07T13:01:07;19.14;66.47
75786;DHT22;64402;44.708;37.644;2023-05-07T13:03:36;19.13;66.44
75786;DHT22;64402;44.708;37.644;2023-05-07T13:06:06;19.11;66.65
75786;DHT22;64402;44.708;37.644;2023-05-07T13:08:39;19.21;66.16
75786;DHT22;64402;44.708;37.644;2023-05-07T13:11:07;19.29;66.27
75786;DHT22;64402;44.708;37.644;2023-05-07T13:13:35;19.22;66.36
75786;DHT22;64402;44.708;37.644;2023-05-07T13:16:02;19.12;66.63
75786;DHT22;64402;44.708;37.644;2023-05-07T13:18:33;19.16;67.39
75786;DHT22;64402;44.708;37.644;2023-05-07T13:21:00;19.15;66.44
75786;DHT22;64402;44.708;37.644;2023-05-07T13:23:27;19.17;66.59
75786;DHT22;64402;44.708;37.644;2023-05-07T13:25:54;19.06;66.34
75786;DHT22;64402;44.708;37.644;2023-05-07T13:28:22;19.08;66.65
75786;DHT22;64402;44.708;37.644;2023-05-07T13:30:49;19.15;66.64
75786;DHT22;64402;44.708;37.644;2023-05-07T13:33:15;19.24;66.29
75786;DHT22;64402;44.708;37.644;2023-05-07T13:35:41;19.31;66.30
75786;DHT22;64402;44.708;37.644;2023-05-07T13:38:08;19.48;65.59
75786;DHT22;64402;44.708;37.644;2023-05-07T13:40:34;19.39;65.49
75786;DHT22;64402;44.708;37.644;2023-05-07T13:43:00;19.36;66.46
75786;DHT22;64402;44.708;37.644;2023-05-07T13:45:29;19.28;66.46
75786;DHT22;64402;44.708;37.644;2023-05-07T13:47:56;19.18;66.81
75786;DHT22;64402;44.708;37.644;2023-05-07T13:50:23;19.16;66.62
75786;DHT22;64402;44.708;37.644;2023-05-07T13:52:49;18.99;67.14
75786;DHT22;64402;44.708;37.644;2023-05-07T13:55:20;18.94;67.42
75786;DHT22;64402;44.708;37.644;2023-05-07T13:57:47;18.96;67.49
75786;DHT22;64402;44.708;37.644;2023-05-07T14:00:14;18.89;67.88
75786;DHT22;64402;44.708;37.644;2023-05-07T14:02:42;18.99;67.81
75786;DHT22;64402;44.708;37.644;2023-05-07T14:05:08;19.09;67.17
75786;DHT22;64402;44.708;37.644;2023-05-07T14:07:35;18.95;67.55
75786;DHT22;64402;44.708;37.644;2023-05-07T14:10:02;18.85;67.78
75786;DHT22;64402;44.708;37.644;2023-05-07T14:12:28;18.62;68.40
75786;DHT22;64402;44.708;37.644;2023-05-07T14:14:54;18.59;69.00
75786;DHT22;64402;44.708;37.644;2023-05-07T14:17:21;18.59;68.93
75786;DHT22;64402;44.708;37.644;2023-05-07T14:19:48;18.56;69.00
75786;DHT22;64402;44.708;37.644;2023-05-07T14:22:15;18.47;69.79
75786;DHT22;64402;44.708;37.644;2023-05-07T14:24:41;18.44;69.58
75786;DHT22;64402;44.708;37.644;2023-05-07T14:27:07;18.46;69.85
75786;DHT22;64402;44.708;37.644;2023-05-07T14:29:34;18.33;69.70
75786;DHT22;64402;44.708;37.644;2023-05-07T14:32:01;18.22;70.05
75786;DHT22;64402;44.708;37.644;2023-05-07T14:34:28;18.19;70.13
75786;DHT22;64402;44.708;37.644;2023-05-07T14:36:54;18.10;70.42
75786;DHT22;64402;44.708;37.644;2023-05-07T14:39:21;17.99;71.17
75786;DHT22;64402;44.708;37.644;2023-05-07T14:41:47;17.90;71.82
75786;DHT22;64402;44.708;37.644;2023-05-07T14:44:13;17.88;71.95
75786;DHT22;64402;44.708;37.644;2023-05-07T14:46:39;17.94;71.51
75786;DHT22;64402;44.708;37.644;2023-05-07T14:49:06;17.84;72.11
75786;DHT22;64402;44.708;37.644;2023-05-07T14:51:32;17.83;71.79
75786;DHT22;64402;44.708;37.644;2023-05-07T14:53:58;17.76;72.36
75786;DHT22;64402;44.708;37.644;2023-05-07T14:56:26;17.70;72.51
75786;DHT22;64402;44.708;37.644;2023-05-07T14:58:52;17.62;73.07
75786;DHT22;64402;44.708;37.644;2023-05-07T15:01:20;17.59;73.13
75786;DHT22;64402;44.708;37.644;2023-05-07T15:03:46;17.51;73.75
75786;DHT22;64402;44.708;37.644;2023-05-07T15:06:12;17.40;73.63
75786;DHT22;64402;44.708;37.644;2023-05-07T15:08:38;17.46;73.48
75786;DHT22;64402;44.708;37.644;2023-05-07T15:11:05;17.47;73.44
75786;DHT22;64402;44.708;37.644;2023-05-07T15:13:31;17.45;73.32
75786;DHT22;64402;44.708;37.644;2023-05-07T15:15:58;17.37;73.40
75786;DHT22;64402;44.708;37.644;2023-05-07T15:18:24;17.28;74.14
75786;DHT22;64402;44.708;37.644;2023-05-07T15:20:51;17.19;74.63